Time;durP1;ratioP1;P1;durP2;ratioP2;P2;SDS_P1;SDS_P2;PMS_P1;PMS_P2;Temp;Humidity;BMP_temperature;BMP_pressure;BME280_temperature;BME280_humidity;BME280_pressure;Samples;Min_cycle;Max_cycle;Signal;HPM_P1;HPM_P2
2023/07/19 00:01:37;;;;;;;10.65;2.72;;;;;;;-144.73;100.00;54350.22;5057772;28;20138;-71
2023/07/19 00:04:02;;;;;;;6.75;2.50;;;;;;;-144.73;100.00;54354.34;5065376;28;20036;-72
2023/07/19 00:06:28;;;;;;;5.38;2.88;;;;;;;-144.73;100.00;54397.44;5072940;28;20012;-72
2023/07/19 00:08:53;;;;;;;6.43;2.78;;;;;;;-144.73;100.00;54370.75;5074631;28;20028;-71
2023/07/19 00:11:18;;;;;;;6.18;2.88;;;;;;;-144.73;100.00;54374.84;5068096;28;20031;-72
2023/07/19 00:13:44;;;;;;;8.68;3.47;;;;;;;-144.73;100.00;54362.53;5084267;28;20028;-71
2023/07/19 00:16:09;;;;;;;4.97;2.60;;;;;;;-144.73;100.00;54370.75;5092636;28;20089;-71
2023/07/19 00:18:34;;;;;;;9.13;3.58;;;;;;;-144.73;100.00;54407.69;5058258;28;20037;-71
2023/07/19 00:21:00;;;;;;;6.07;2.78;;;;;;;-144.73;100.00;54399.50;5072414;28;20035;-71
2023/07/19 00:23:25;;;;;;;9.40;3.50;;;;;;;-144.73;100.00;54374.84;5071723;28;20043;-71
2023/07/19 00:25:51;;;;;;;6.35;2.97;;;;;;;-144.73;100.00;54366.66;5078723;28;20098;-71
2023/07/19 00:28:17;;;;;;;6.35;3.03;;;;;;;-144.73;100.00;54356.38;5079428;28;20043;-72
2023/07/19 00:30:42;;;;;;;6.10;3.10;;;;;;;-144.73;100.00;54378.97;5063269;28;20024;-72
2023/07/19 00:33:08;;;;;;;7.40;3.35;;;;;;;-144.73;100.00;54366.66;5085052;28;20024;-72
2023/07/19 00:35:33;;;;;;;6.47;3.20;;;;;;;-144.73;100.00;54395.38;5071621;28;20372;-72
2023/07/19 00:37:58;;;;;;;7.60;3.35;;;;;;;-144.73;100.00;54342.03;5058674;28;20052;-72
2023/07/19 00:40:24;;;;;;;5.50;3.55;;;;;;;-144.73;100.00;54409.75;5073615;28;20020;-72
2023/07/19 00:42:58;;;;;;;6.03;3.00;;;;;;;-144.73;100.00;54395.38;5087312;28;20033;-72
2023/07/19 00:45:27;;;;;;;8.98;3.03;;;;;;;-144.73;100.00;54342.03;5072971;28;20499;-72
2023/07/19 00:47:54;;;;;;;10.98;3.20;;;;;;;-144.73;100.00;54383.06;5082372;28;20028;-71
2023/07/19 00:50:20;;;;;;;9.10;3.13;;;;;;;-144.73;100.00;54346.13;5072981;28;20027;-72
2023/07/19 00:52:47;;;;;;;5.90;3.00;;;;;;;-144.73;100.00;54383.06;5083382;28;20054;-72
2023/07/19 00:55:12;;;;;;;10.98;3.10;;;;;;;-144.73;100.00;54374.84;5073138;28;20034;-72
2023/07/19 00:57:38;;;;;;;10.60;2.50;;;;;;;-144.73;100.00;54374.84;5070824;28;20025;-72
2023/07/19 01:00:05;;;;;;;8.15;2.92;;;;;;;-144.73;100.00;54378.97;5082716;28;20027;-72
2023/07/19 01:02:31;;;;;;;10.40;3.10;;;;;;;-144.73;100.00;54393.34;5071931;28;20028;-72
2023/07/19 01:04:57;;;;;;;8.48;2.90;;;;;;;-144.73;100.00;54368.69;5071878;28;20024;-72
2023/07/19 01:07:23;;;;;;;9.45;3.30;;;;;;;-144.73;100.00;54368.69;5071714;28;20035;-72
2023/07/19 01:09:49;;;;;;;7.10;2.90;;;;;;;-144.73;100.00;54381.00;5070294;28;20467;-72
2023/07/19 01:12:14;;;;;;;8.38;3.42;;;;;;;-144.73;100.00;54346.13;5067448;28;20063;-72
2023/07/19 01:14:39;;;;;;;7.63;3.50;;;;;;;-144.73;100.00;54391.28;5070819;28;20055;-72
2023/07/19 01:17:05;;;;;;;7.50;2.85;;;;;;;-144.73;100.00;54370.75;5072916;28;20064;-72
2023/07/19 01:19:30;;;;;;;8.48;3.65;;;;;;;-144.73;100.00;54329.72;5089361;28;20406;-72
2023/07/19 01:21:57;;;;;;;13.30;2.83;;;;;;;-144.73;100.00;54387.19;5072613;28;20028;-72
2023/07/19 01:24:23;;;;;;;10.18;2.70;;;;;;;-144.73;100.00;54399.50;5088888;28;20375;-72
2023/07/19 01:26:48;;;;;;;12.98;3.53;;;;;;;-144.73;100.00;54383.06;5082874;28;20033;-71
2023/07/19 01:29:14;;;;;;;11.23;3.42;;;;;;;-144.73;100.00;54387.19;5090204;28;20052;-72
2023/07/19 01:31:39;;;;;;;6.93;2.90;;;;;;;-144.73;100.00;54407.69;5066360;28;20032;-72
2023/07/19 01:34:04;;;;;;;8.18;3.15;;;;;;;-144.73;100.00;54374.84;5066428;28;20148;-71
2023/07/19 01:36:30;;;;;;;8.10;3.05;;;;;;;-144.73;100.00;54395.38;5072358;28;20016;-72
2023/07/19 01:38:55;;;;;;;4.85;3.03;;;;;;;-144.73;100.00;54383.06;5065017;28;20498;-72
2023/07/19 01:41:22;;;;;;;6.63;3.08;;;;;;;-144.73;100.00;54366.66;5090167;28;20039;-73
2023/07/19 01:43:48;;;;;;;8.80;3.92;;;;;;;-144.73;100.00;54372.81;5063630;28;20517;-71
2023/07/19 01:46:13;;;;;;;8.43;2.90;;;;;;;-144.73;100.00;54391.28;5071717;28;20111;-71
2023/07/19 01:48:38;;;;;;;9.52;2.65;;;;;;;-144.73;100.00;54446.69;5069157;28;20036;-71
2023/07/19 01:51:05;;;;;;;5.07;3.08;;;;;;;-144.73;100.00;54378.97;5080206;28;20021;-71
2023/07/19 01:53:30;;;;;;;5.40;2.83;;;;;;;-144.73;100.00;54337.91;5079596;28;20395;-71
2023/07/19 01:55:56;;;;;;;5.20;3.00;;;;;;;-144.73;100.00;54370.75;5066965;28;20016;-71
2023/07/19 01:58:22;;;;;;;5.30;2.63;;;;;;;-144.73;100.00;54391.28;5054917;28;20036;-73
2023/07/19 02:00:47;;;;;;;7.82;3.13;;;;;;;-144.73;100.00;54391.28;5071843;28;20101;-72
2023/07/19 02:03:13;;;;;;;9.10;2.55;;;;;;;-144.73;100.00;54383.06;5083390;28;20032;-72
2023/07/19 02:05:38;;;;;;;8.55;3.25;;;;;;;-144.73;100.00;54321.50;5074288;28;20059;-72
2023/07/19 02:08:04;;;;;;;6.65;3.45;;;;;;;-144.73;100.00;54411.81;5056844;28;20036;-72
2023/07/19 02:10:29;;;;;;;6.50;3.30;;;;;;;-144.73;100.00;54391.28;5074553;28;20074;-73
2023/07/19 02:12:54;;;;;;;11.77;3.63;;;;;;;-144.73;100.00;54383.06;5067553;28;20058;-72
2023/07/19 02:15:20;;;;;;;5.75;2.70;;;;;;;-144.73;100.00;54383.06;5072155;28;20410;-72
2023/07/19 02:17:45;;;;;;;5.63;2.67;;;;;;;-144.73;100.00;54411.81;5072774;28;20060;-72
2023/07/19 02:20:12;;;;;;;9.48;2.97;;;;;;;-144.73;100.00;54354.34;5072162;28;20514;-72
2023/07/19 02:22:39;;;;;;;11.90;2.78;;;;;;;-144.73;100.00;54366.66;5069227;28;20032;-72
2023/07/19 02:25:05;;;;;;;5.15;2.35;;;;;;;-144.73;100.00;54378.97;5089364;28;20048;-72
2023/07/19 02:27:31;;;;;;;8.63;2.38;;;;;;;-144.73;100.00;54391.28;5066110;28;20060;-72
2023/07/19 02:29:56;;;;;;;6.72;2.78;;;;;;;-144.73;100.00;54354.34;5093469;28;20020;-72
2023/07/19 02:32:22;;;;;;;7.00;2.30;;;;;;;-144.73;100.00;54407.69;5067884;28;20078;-72
2023/07/19 02:34:47;;;;;;;6.63;2.38;;;;;;;-144.73;100.00;54352.28;5060246;28;20035;-72
2023/07/19 02:37:13;;;;;;;11.60;2.40;;;;;;;-144.73;100.00;54411.81;5087970;28;20025;-72
2023/07/19 02:39:38;;;;;;;6.00;2.50;;;;;;;-144.73;100.00;54372.81;5085448;28;20042;-72
2023/07/19 02:42:04;;;;;;;8.55;2.40;;;;;;;-144.73;100.00;54366.66;5071607;28;20051;-73
2023/07/19 02:44:29;;;;;;;3.60;1.88;;;;;;;-144.73;100.00;54370.75;5065528;28;20496;-72
2023/07/19 02:46:55;;;;;;;4.63;2.17;;;;;;;-144.73;100.00;54381.00;5076039;28;20028;-72
2023/07/19 02:49:20;;;;;;;5.78;2.15;;;;;;;-144.73;100.00;54424.13;5079125;28;20071;-72
2023/07/19 02:51:46;;;;;;;10.25;2.50;;;;;;;-144.73;100.00;54378.97;5060579;28;20019;-72
2023/07/19 02:54:11;;;;;;;5.90;2.40;;;;;;;-144.73;100.00;54391.28;5067898;28;20040;-72
2023/07/19 02:56:37;;;;;;;7.88;2.45;;;;;;;-144.73;100.00;54395.38;5064448;28;20019;-72
2023/07/19 02:59:03;;;;;;;6.10;2.63;;;;;;;-144.73;100.00;54378.97;5079029;28;20032;-72
2023/07/19 03:01:29;;;;;;;9.55;2.88;;;;;;;-144.73;100.00;54432.31;5059018;28;20024;-72
2023/07/19 03:03:55;;;;;;;7.65;2.28;;;;;;;-144.73;100.00;54397.44;5072079;28;20032;-71
2023/07/19 03:06:20;;;;;;;9.18;2.60;;;;;;;-144.73;100.00;54393.34;5071070;28;20012;-73
2023/07/19 03:08:46;;;;;;;15.45;2.42;;;;;;;-144.73;100.00;54415.91;5066209;28;20043;-71
2023/07/19 03:11:12;;;;;;;3.67;2.08;;;;;;;-144.73;100.00;54444.66;5061774;28;20016;-71
2023/07/19 03:13:37;;;;;;;5.65;2.50;;;;;;;-144.73;100.00;54407.69;5089179;28;20029;-71
2023/07/19 03:16:03;;;;;;;10.90;3.05;;;;;;;-144.73;100.00;54389.22;5073337;28;20030;-71
2023/07/19 03:18:28;;;;;;;7.15;2.55;;;;;;;-144.73;100.00;54366.66;5090929;28;20077;-71
2023/07/19 03:21:01;;;;;;;8.85;2.75;;;;;;;-144.73;100.00;54395.38;5091182;28;20047;-72
2023/07/19 03:23:30;;;;;;;6.82;2.92;;;;;;;-144.73;100.00;54407.69;5064099;28;20036;-71
2023/07/19 03:25:59;;;;;;;9.50;2.70;;;;;;;-144.73;100.00;54393.34;5069986;28;20047;-71
2023/07/19 03:28:29;;;;;;;13.82;2.42;;;;;;;-144.73;100.00;54436.44;5069315;28;20048;-72
2023/07/19 03:30:54;;;;;;;5.95;2.55;;;;;;;-144.73;100.00;54411.81;5067101;28;20106;-71
2023/07/19 03:33:21;;;;;;;13.52;3.03;;;;;;;-144.73;100.00;54411.81;5090833;28;20101;-71
2023/07/19 03:35:47;;;;;;;9.55;2.90;;;;;;;-144.73;100.00;54407.69;5069897;28;20099;-72
2023/07/19 03:38:12;;;;;;;5.55;2.80;;;;;;;-144.73;100.00;54420.00;5062815;28;20107;-71
2023/07/19 03:40:38;;;;;;;10.45;2.42;;;;;;;-144.73;100.00;54397.44;5074964;28;20077;-72
2023/07/19 03:43:03;;;;;;;9.55;2.85;;;;;;;-144.73;100.00;54399.50;5092648;28;20138;-72
2023/07/19 03:45:28;;;;;;;6.18;2.58;;;;;;;-144.73;100.00;54415.91;5065841;28;20023;-72
2023/07/19 03:47:54;;;;;;;12.18;2.97;;;;;;;-144.73;100.00;54407.69;5090708;28;20020;-72
2023/07/19 03:50:19;;;;;;;8.10;2.53;;;;;;;-144.73;100.00;54415.91;5063993;28;20048;-72
2023/07/19 03:52:44;;;;;;;9.18;2.50;;;;;;;-144.73;100.00;54407.69;5081348;28;20042;-72
2023/07/19 03:55:10;;;;;;;7.63;2.85;;;;;;;-144.73;100.00;54399.50;5087246;28;20020;-71
2023/07/19 03:57:35;;;;;;;7.13;3.17;;;;;;;-144.73;100.00;54420.00;5060978;28;20032;-72
2023/07/19 04:00:01;;;;;;;8.68;2.40;;;;;;;-144.73;100.00;54389.22;5074680;28;20597;-72
2023/07/19 04:02:26;;;;;;;12.65;3.08;;;;;;;-144.73;100.00;54407.69;5072360;28;20023;-72
2023/07/19 04:04:51;;;;;;;7.07;2.47;;;;;;;-144.73;100.00;54444.66;5067828;28;20423;-72
2023/07/19 04:07:17;;;;;;;7.55;2.63;;;;;;;-144.73;100.00;54409.75;5066688;28;20020;-71
2023/07/19 04:09:44;;;;;;;7.25;2.67;;;;;;;-144.73;100.00;54389.22;5058451;28;20020;-72
2023/07/19 04:12:09;;;;;;;5.45;2.58;;;;;;;-144.73;100.00;54428.22;5063369;28;20020;-72
2023/07/19 04:14:35;;;;;;;5.03;2.90;;;;;;;-144.73;100.00;54391.28;5066806;28;20028;-72
2023/07/19 04:17:00;;;;;;;5.47;2.78;;;;;;;-144.73;100.00;54395.38;5077060;28;20031;-72
2023/07/19 04:19:25;;;;;;;11.43;2.60;;;;;;;-144.73;100.00;54378.97;5080283;28;20085;-72
2023/07/19 04:21:51;;;;;;;4.93;2.83;;;;;;;-144.73;100.00;54360.50;5065863;28;20024;-71
2023/07/19 04:24:16;;;;;;;11.98;2.97;;;;;;;-144.73;100.00;54409.75;5065010;28;20506;-71
2023/07/19 04:26:41;;;;;;;4.68;2.55;;;;;;;-144.73;100.00;54426.16;5057616;28;20020;-72
2023/07/19 04:29:07;;;;;;;7.45;2.90;;;;;;;-144.73;100.00;54411.81;5066597;28;20029;-72
2023/07/19 04:31:32;;;;;;;8.00;2.88;;;;;;;-144.73;100.00;54420.00;5081669;28;20016;-71
2023/07/19 04:33:58;;;;;;;7.45;2.50;;;;;;;-144.73;100.00;54395.38;5080273;28;20032;-71
2023/07/19 04:36:23;;;;;;;6.05;3.13;;;;;;;-144.73;100.00;54397.44;5056142;28;20035;-72
2023/07/19 04:38:48;;;;;;;9.63;2.78;;;;;;;-144.73;100.00;54424.13;5072119;28;20028;-71
2023/07/19 04:41:14;;;;;;;5.40;2.05;;;;;;;-144.73;100.00;54430.28;5087628;28;20027;-72
2023/07/19 04:43:39;;;;;;;7.18;2.63;;;;;;;-144.73;100.00;54454.91;5072285;28;20036;-71
2023/07/19 04:46:05;;;;;;;8.65;2.17;;;;;;;-144.73;100.00;54440.53;5071116;28;20055;-71
2023/07/19 04:48:30;;;;;;;5.65;2.25;;;;;;;-144.73;100.00;54411.81;5067554;28;20048;-72
2023/07/19 04:50:56;;;;;;;11.07;2.63;;;;;;;-144.73;100.00;54413.84;5072077;28;20034;-71
2023/07/19 04:53:22;;;;;;;7.38;2.67;;;;;;;-144.73;100.00;54473.38;5067484;28;20494;-72
2023/07/19 04:55:51;;;;;;;3.97;2.10;;;;;;;-144.73;100.00;54440.53;5063876;28;20024;-71
2023/07/19 04:58:16;;;;;;;8.82;2.90;;;;;;;-144.73;100.00;54432.31;5090050;28;20028;-71
2023/07/19 05:00:42;;;;;;;7.13;2.90;;;;;;;-144.73;100.00;54415.91;5085137;28;20028;-71
2023/07/19 05:03:07;;;;;;;4.35;2.25;;;;;;;-144.73;100.00;54420.00;5080148;28;20043;-71
2023/07/19 05:05:33;;;;;;;6.60;2.42;;;;;;;-144.73;100.00;54452.84;5066379;28;20027;-71
2023/07/19 05:07:59;;;;;;;10.02;3.35;;;;;;;-144.73;100.00;54411.81;5067864;28;20032;-71
2023/07/19 05:10:24;;;;;;;7.93;3.50;;;;;;;-144.73;100.00;54432.31;5068955;28;20483;-71
2023/07/19 05:12:49;;;;;;;6.97;2.65;;;;;;;-144.73;100.00;54358.44;5066296;28;20046;-71
2023/07/19 05:15:15;;;;;;;8.80;2.95;;;;;;;-144.73;100.00;54415.91;5069328;28;20054;-72
2023/07/19 05:17:40;;;;;;;10.57;2.92;;;;;;;-144.73;100.00;54407.69;5058426;28;20048;-71
2023/07/19 05:20:07;;;;;;;7.88;2.80;;;;;;;-144.73;100.00;54383.06;5084678;28;20390;-71
2023/07/19 05:22:33;;;;;;;8.20;2.85;;;;;;;-144.73;100.00;54420.00;5079823;28;20056;-72
2023/07/19 05:24:58;;;;;;;7.25;3.17;;;;;;;-144.73;100.00;54407.69;5084925;28;20060;-72
2023/07/19 05:27:24;;;;;;;7.63;2.60;;;;;;;-144.73;100.00;54391.28;5078740;28;20054;-73
2023/07/19 05:29:49;;;;;;;8.45;2.40;;;;;;;-144.73;100.00;54407.69;5073057;28;20016;-73
2023/07/19 05:32:15;;;;;;;11.05;4.30;;;;;;;-144.73;100.00;54424.13;5053383;28;20051;-73
2023/07/19 05:34:40;;;;;;;9.43;4.18;;;;;;;-144.73;100.00;54411.81;5056327;28;20378;-73
2023/07/19 05:37:06;;;;;;;8.02;2.70;;;;;;;-144.73;100.00;54436.44;5063665;28;20059;-73
2023/07/19 05:39:33;;;;;;;6.20;2.58;;;;;;;-144.73;100.00;54415.91;5064822;28;20135;-73
2023/07/19 05:41:59;;;;;;;7.28;2.70;;;;;;;-144.73;100.00;54383.06;5063929;28;20020;-73
2023/07/19 05:44:25;;;;;;;7.03;2.70;;;;;;;-144.73;100.00;54407.69;5074679;28;20028;-73
2023/07/19 05:46:50;;;;;;;6.43;2.42;;;;;;;-144.73;100.00;54448.75;5068233;28;20035;-73
2023/07/19 05:49:16;;;;;;;9.35;3.05;;;;;;;-144.73;100.00;54420.00;5075570;28;20158;-73
2023/07/19 05:51:41;;;;;;;3.63;2.10;;;;;;;-144.73;100.00;54424.13;5073701;28;20024;-73
2023/07/19 05:54:07;;;;;;;6.93;2.35;;;;;;;-144.73;100.00;54409.75;5073243;28;20024;-73
2023/07/19 05:56:32;;;;;;;6.43;2.45;;;;;;;-144.73;100.00;54407.69;5076663;28;20027;-73
2023/07/19 05:58:58;;;;;;;5.53;2.15;;;;;;;-144.73;100.00;54409.75;5072363;28;20039;-73
2023/07/19 06:01:24;;;;;;;5.03;2.20;;;;;;;-144.73;100.00;54407.69;5085964;28;20020;-74
2023/07/19 06:03:49;;;;;;;2.85;1.77;;;;;;;-144.73;100.00;54374.84;5069272;28;20035;-73
2023/07/19 06:06:15;;;;;;;8.57;2.13;;;;;;;-144.73;100.00;54432.31;5068733;28;20020;-74
2023/07/19 06:08:40;;;;;;;5.72;2.60;;;;;;;-144.73;100.00;54432.31;5086967;28;20062;-73
2023/07/19 06:11:06;;;;;;;8.50;1.77;;;;;;;-144.73;100.00;54407.69;5086239;28;20020;-73
2023/07/19 06:13:31;;;;;;;5.93;1.90;;;;;;;-144.73;100.00;54415.91;5060445;28;20029;-73
2023/07/19 06:15:57;;;;;;;4.95;1.98;;;;;;;-144.73;100.00;54374.84;5067361;28;20116;-73
2023/07/19 06:18:23;;;;;;;4.25;1.92;;;;;;;-144.73;100.00;54420.00;5065926;28;20032;-74
2023/07/19 06:20:48;;;;;;;6.30;1.92;;;;;;;-144.73;100.00;54407.69;5069825;28;20038;-74
2023/07/19 06:23:14;;;;;;;4.55;1.85;;;;;;;-144.73;100.00;54424.13;5071203;28;20028;-73
2023/07/19 06:25:39;;;;;;;4.20;1.77;;;;;;;-144.73;100.00;54395.38;5070141;28;20024;-73
2023/07/19 06:28:05;;;;;;;8.85;2.17;;;;;;;-144.73;100.00;54407.69;5078531;28;20025;-73
2023/07/19 06:30:31;;;;;;;5.38;1.85;;;;;;;-144.73;100.00;54432.31;5061565;28;20028;-74
2023/07/19 06:32:56;;;;;;;10.25;3.00;;;;;;;-144.73;100.00;54391.28;5066713;28;20384;-75
2023/07/19 06:35:22;;;;;;;4.72;2.47;;;;;;;-144.73;100.00;54395.38;5065253;28;20024;-73
2023/07/19 06:37:47;;;;;;;6.20;2.05;;;;;;;-144.73;100.00;54387.19;5064485;28;20258;-73
2023/07/19 06:40:12;;;;;;;3.78;2.00;;;;;;;-144.73;100.00;54415.91;5078434;28;20022;-74
2023/07/19 06:42:38;;;;;;;6.85;2.10;;;;;;;-144.73;100.00;54440.53;5067826;28;20024;-73
2023/07/19 06:45:03;;;;;;;3.30;1.60;;;;;;;-144.73;100.00;54391.28;5084082;28;20107;-73
2023/07/19 06:47:29;;;;;;;8.50;1.70;;;;;;;-144.73;100.00;54374.84;5078550;28;20020;-73
2023/07/19 06:49:56;;;;;;;11.18;5.82;;;;;;;-144.73;100.00;54432.31;5064963;28;20024;-73
2023/07/19 06:52:21;;;;;;;11.32;2.67;;;;;;;-144.73;100.00;54434.38;5070083;28;20103;-74
2023/07/19 06:54:47;;;;;;;5.43;1.63;;;;;;;-144.73;100.00;54432.31;5065113;28;20111;-74
2023/07/19 06:57:12;;;;;;;4.85;1.90;;;;;;;-144.73;100.00;54420.00;5064046;28;20028;-73
2023/07/19 06:59:37;;;;;;;5.47;1.58;;;;;;;-144.73;100.00;54395.38;5060923;28;20031;-73
2023/07/19 07:02:03;;;;;;;3.10;1.60;;;;;;;-144.73;100.00;54432.31;5065418;28;20035;-73
2023/07/19 07:04:28;;;;;;;8.35;2.35;;;;;;;-144.73;100.00;54407.69;5080710;28;20051;-74
2023/07/19 07:06:54;;;;;;;5.63;1.90;;;;;;;-144.73;100.00;54424.13;5063218;28;20023;-73
2023/07/19 07:09:19;;;;;;;4.38;1.50;;;;;;;-144.73;100.00;54444.66;5067964;28;20040;-73
2023/07/19 07:11:45;;;;;;;5.47;1.98;;;;;;;-144.73;100.00;54432.31;5089509;28;20028;-73
2023/07/19 07:14:10;;;;;;;6.28;1.60;;;;;;;-144.73;100.00;54415.91;5070538;28;20037;-73
2023/07/19 07:16:36;;;;;;;3.47;1.40;;;;;;;-144.73;100.00;54432.31;5069692;28;20115;-73
2023/07/19 07:19:02;;;;;;;5.50;1.83;;;;;;;-144.73;100.00;54383.06;5064186;28;20067;-73
2023/07/19 07:21:27;;;;;;;8.18;1.92;;;;;;;-144.73;100.00;54387.19;5084373;28;20023;-73
2023/07/19 07:23:53;;;;;;;3.78;1.90;;;;;;;-144.73;100.00;54432.31;5070629;28;20032;-74
2023/07/19 07:26:21;;;;;;;4.80;1.40;;;;;;;-144.73;100.00;54413.84;5074577;28;20032;-73
2023/07/19 07:28:47;;;;;;;4.07;1.58;;;;;;;-144.73;100.00;54420.00;5072021;28;20016;-73
2023/07/19 07:31:12;;;;;;;7.18;2.00;;;;;;;-144.73;100.00;54459.00;5068490;28;20028;-73
2023/07/19 07:33:38;;;;;;;5.25;1.63;;;;;;;-144.73;100.00;54424.13;5072170;28;20032;-73
2023/07/19 07:36:03;;;;;;;7.72;2.35;;;;;;;-144.73;100.00;54436.44;5073212;28;20032;-73
2023/07/19 07:38:29;;;;;;;7.70;1.85;;;;;;;-144.73;100.00;54391.28;5087455;28;20052;-73
2023/07/19 07:41:04;;;;;;;4.00;1.30;;;;;;;-144.73;100.00;54415.91;5066818;28;20034;-73
2023/07/19 07:43:30;;;;;;;5.63;1.95;;;;;;;-144.73;100.00;54387.19;5070537;28;20039;-73
2023/07/19 07:45:56;;;;;;;4.53;1.55;;;;;;;-144.73;100.00;54395.38;5066223;28;20028;-73
2023/07/19 07:48:22;;;;;;;2.08;1.15;;;;;;;-144.73;100.00;54393.34;5069111;28;20027;-73
2023/07/19 07:50:52;;;;;;;4.75;1.13;;;;;;;-144.73;100.00;54381.00;5067011;28;20024;-72
2023/07/19 07:53:30;;;;;;;4.60;2.03;;;;;;;-144.73;100.00;54378.97;5085644;28;20028;-73
2023/07/19 07:55:57;;;;;;;5.70;2.03;;;;;;;-144.73;100.00;54395.38;5053321;28;20074;-73
2023/07/19 07:58:23;;;;;;;5.13;3.03;;;;;;;-144.73;100.00;54452.84;5069322;28;20036;-74
2023/07/19 08:00:49;;;;;;;5.60;1.65;;;;;;;-144.73;100.00;54436.44;5092062;28;20019;-74
2023/07/19 08:03:15;;;;;;;2.97;1.60;;;;;;;-144.73;100.00;54407.69;5068377;28;20039;-73
2023/07/19 08:05:40;;;;;;;4.53;1.58;;;;;;;-144.73;100.00;54366.66;5091985;28;20024;-72
2023/07/19 08:08:07;;;;;;;6.35;1.50;;;;;;;-144.73;100.00;54378.97;5088934;28;20157;-72
2023/07/19 08:10:38;;;;;;;5.28;1.40;;;;;;;-144.73;100.00;54366.66;5070379;28;20036;-73
2023/07/19 08:13:03;;;;;;;9.98;2.05;;;;;;;-144.73;100.00;54395.38;5072486;28;20099;-72
2023/07/19 08:15:32;;;;;;;6.00;1.40;;;;;;;-144.73;100.00;54391.28;5088818;28;20145;-73
2023/07/19 08:17:57;;;;;;;4.43;1.40;;;;;;;-144.73;100.00;54415.91;5060176;28;20086;-73
2023/07/19 08:20:24;;;;;;;4.90;1.40;;;;;;;-144.73;100.00;54415.91;5061144;28;20449;-73
2023/07/19 08:22:50;;;;;;;1.90;1.17;;;;;;;-144.73;100.00;54381.00;5060666;28;20047;-73
2023/07/19 08:25:18;;;;;;;6.05;1.30;;;;;;;-144.73;100.00;54395.38;5065231;28;20049;-73
2023/07/19 08:27:44;;;;;;;4.43;1.38;;;;;;;-144.73;100.00;54370.75;5063272;28;20115;-74
2023/07/19 08:30:15;;;;;;;5.18;1.38;;;;;;;-144.73;100.00;54366.66;5082569;28;20068;-72
2023/07/19 08:32:47;;;;;;;4.72;1.50;;;;;;;-144.73;95.75;54374.84;5084918;28;20032;-72
2023/07/19 08:35:14;;;;;;;5.97;1.77;;;;;;;-144.73;94.16;54407.69;5052880;28;20056;-72
2023/07/19 08:37:43;;;;;;;5.32;1.80;;;;;;;-144.73;90.26;54387.19;5054129;28;20028;-72
2023/07/19 08:40:14;;;;;;;6.68;1.58;;;;;;;-144.73;90.22;54378.97;5072899;28;20052;-72
2023/07/19 08:42:40;;;;;;;2.95;1.10;;;;;;;-144.73;88.39;54333.81;5078611;28;20498;-73
2023/07/19 08:45:07;;;;;;;5.93;1.30;;;;;;;-144.73;88.83;54395.38;5064433;28;20081;-71
2023/07/19 08:47:34;;;;;;;5.32;1.45;;;;;;;-144.73;88.97;54378.97;5063961;28;20036;-71
2023/07/19 08:50:04;;;;;;;1.20;0.80;;;;;;;-144.73;87.09;54366.66;5068028;28;20038;-71
2023/07/19 08:52:31;;;;;;;7.47;1.65;;;;;;;-144.73;84.79;54383.06;5066110;28;22983;-71
2023/07/19 08:54:56;;;;;;;3.42;1.35;;;;;;;-144.73;83.65;54378.97;5086387;28;20032;-71
2023/07/19 08:57:21;;;;;;;5.85;1.85;;;;;;;-144.73;82.21;54358.44;5066763;28;20036;-72
2023/07/19 08:59:48;;;;;;;2.28;1.30;;;;;;;-144.73;83.93;54420.00;5087593;28;20030;-71
2023/07/19 09:02:13;;;;;;;2.35;1.20;;;;;;;-144.73;86.26;54399.50;5084937;28;20036;-71
2023/07/19 09:04:39;;;;;;;10.50;3.08;;;;;;;-144.73;82.81;54391.28;5066775;28;20386;-71
2023/07/19 09:07:04;;;;;;;2.78;1.48;;;;;;;-144.73;85.05;54378.97;5085192;28;20031;-70
2023/07/19 09:09:31;;;;;;;13.57;1.40;;;;;;;-144.73;88.69;54399.50;5067447;28;20104;-71
2023/07/19 09:11:57;;;;;;;7.28;1.60;;;;;;;-144.73;89.66;54391.28;5083796;28;20505;-70
2023/07/19 09:14:36;;;;;;;3.25;1.23;;;;;;;-144.73;84.66;54344.06;5084281;28;20036;-70
2023/07/19 09:17:02;;;;;;;2.50;0.90;;;;;;;-144.73;86.33;54325.59;5068034;28;20070;-71
2023/07/19 09:19:28;;;;;;;3.38;1.20;;;;;;;-144.73;82.79;54407.69;5067197;28;20055;-71
2023/07/19 09:21:53;;;;;;;4.10;1.17;;;;;;;-144.73;78.48;54395.38;5084444;28;20028;-71
2023/07/19 09:24:18;;;;;;;3.53;1.20;;;;;;;-144.73;78.96;54374.84;5085251;28;20059;-72
2023/07/19 09:26:49;;;;;;;2.75;1.00;;;;;;;-144.73;79.28;54376.91;5067846;28;20028;-72
2023/07/19 09:29:15;;;;;;;11.25;1.30;;;;;;;-144.73;74.07;54358.44;5085454;28;20028;-70
2023/07/19 09:31:50;;;;;;;2.58;1.00;;;;;;;-144.73;78.27;54309.19;5070282;28;20081;-70
2023/07/19 09:34:15;;;;;;;3.00;1.02;;;;;;;-144.73;75.22;54333.81;5067877;28;20028;-71
2023/07/19 09:36:41;;;;;;;1.35;0.93;;;;;;;-144.73;74.33;54329.72;5068042;28;20024;-71
2023/07/19 09:39:07;;;;;;;3.08;1.30;;;;;;;-144.73;73.33;54362.53;5086143;28;20038;-71
2023/07/19 09:41:34;;;;;;;2.67;1.00;;;;;;;-144.73;73.14;54354.34;5084902;28;20068;-71
2023/07/19 09:44:09;;;;;;;2.65;1.30;;;;;;;-144.73;78.40;54393.34;5087277;28;20085;-71
2023/07/19 09:46:36;;;;;;;2.65;1.10;;;;;;;-144.73;78.86;54362.53;5085139;28;20036;-71
2023/07/19 09:49:02;;;;;;;4.32;1.05;;;;;;;-144.73;76.15;54331.75;5086633;28;20024;-72
2023/07/19 09:51:33;;;;;;;3.08;1.25;;;;;;;-144.73;72.13;54348.19;5086287;28;20039;-72
2023/07/19 09:54:06;;;;;;;8.07;2.05;;;;;;;-144.73;69.96;54378.97;5086873;28;20124;-71
2023/07/19 09:56:33;;;;;;;3.65;1.23;;;;;;;-144.73;68.23;54333.81;5068534;28;20512;-70
2023/07/19 09:59:00;;;;;;;2.40;1.40;;;;;;;-144.73;70.29;54346.13;5085043;28;20055;-71
2023/07/19 10:01:40;;;;;;;2.28;1.05;;;;;;;-144.73;71.07;54383.06;5061245;28;20089;-71
2023/07/19 10:04:28;;;;;;;3.88;1.30;;;;;;;-144.73;68.57;54305.06;5068218;28;20036;-71
2023/07/19 10:07:06;;;;;;;3.33;1.40;;;;;;;-144.73;67.91;54280.44;5074475;23;20090;-71
2023/07/19 10:09:45;;;;;;;3.33;1.52;;;;;;;-144.73;66.20;54374.84;5046801;28;20059;-71
2023/07/19 10:12:17;;;;;;;2.70;1.13;;;;;;;-144.73;69.65;54358.44;5064158;28;20438;-70
2023/07/19 10:14:56;;;;;;;1.52;0.95;;;;;;;-144.73;68.87;54321.50;5066125;28;20016;-70
2023/07/19 10:17:22;;;;;;;3.40;1.13;;;;;;;-144.73;66.99;54333.81;5048337;28;20028;-71
2023/07/19 10:20:03;;;;;;;4.05;1.42;;;;;;;-144.73;67.56;54342.03;5050207;28;20028;-71
2023/07/19 10:23:02;;;;;;;6.07;1.27;;;;;;;-144.73;64.80;54309.19;5065740;28;20052;-71
2023/07/19 10:25:34;;;;;;;8.48;5.15;;;;;;;-144.73;64.47;54317.38;5049392;28;20043;-72
2023/07/19 10:28:05;;;;;;;4.53;1.73;;;;;;;-144.73;62.63;54305.06;5053087;28;20115;-70
2023/07/19 10:30:49;;;;;;;18.42;12.23;;;;;;;-144.73;63.37;54296.88;5067950;28;20035;-70
2023/07/19 10:33:16;;;;;;;15.20;7.30;;;;;;;-144.73;59.67;54329.72;5069469;28;20062;-71
2023/07/19 10:35:42;;;;;;;8.18;4.65;;;;;;;-144.73;58.41;54333.81;5051225;28;20134;-71
2023/07/19 10:38:17;;;;;;;6.05;1.65;;;;;;;-144.73;57.68;54333.81;5069776;28;20081;-70
2023/07/19 10:40:59;;;;;;;3.10;1.60;;;;;;;-144.73;62.27;54360.50;5051149;28;20054;-70
2023/07/19 10:43:26;;;;;;;7.60;2.15;;;;;;;-144.73;60.54;54387.19;5051064;28;20124;-71
2023/07/19 10:45:52;;;;;;;3.17;1.42;;;;;;;-144.73;60.83;54321.50;5069119;28;20028;-71
2023/07/19 10:48:28;;;;;;;5.47;1.30;;;;;;;-144.73;62.81;54327.66;5069750;28;20032;-71
2023/07/19 10:50:58;;;;;;;2.55;1.45;;;;;;;-144.73;64.31;54333.81;5069036;28;20021;-70
2023/07/19 10:53:24;;;;;;;3.15;1.35;;;;;;;-144.73;65.65;54337.91;5067407;28;20029;-70
2023/07/19 10:55:58;;;;;;;4.97;1.77;;;;;;;-144.73;71.20;54354.34;5068548;28;20032;-70
2023/07/19 10:58:25;;;;;;;4.85;1.70;;;;;;;-144.73;68.20;54370.75;5050132;28;20037;-71
2023/07/19 11:00:52;;;;;;;3.50;1.48;;;;;;;-144.73;68.38;54362.53;5067567;28;20029;-70
2023/07/19 11:03:22;;;;;;;6.68;2.03;;;;;;;-144.73;67.00;54321.50;5068310;28;20033;-70
2023/07/19 11:05:49;;;;;;;4.82;1.75;;;;;;;-144.73;64.17;54374.84;5048512;28;20077;-70
2023/07/19 11:08:25;;;;;;;5.20;1.83;;;;;;;-144.73;63.97;54391.28;5067142;28;20036;-70